createdAt,value
2018-03-23T00:00:03.421Z,127.78
2018-03-23T00:02:30.843Z,101.28
2018-03-23T00:04:58.538Z,146.62
2018-03-23T00:07:26.230Z,117.10
2018-03-23T00:09:53.925Z,92.03
2018-03-23T00:12:21.985Z,70.75
2018-03-23T00:14:50.041Z,70.15
2018-03-23T00:17:17.694Z,81.70
2018-03-23T00:19:45.362Z,100.45
2018-03-23T00:22:13.034Z,99.00
2018-03-23T00:24:40.711Z,61.40
2018-03-23T00:27:08.401Z,98.07
2018-03-23T00:29:36.094Z,81.50
2018-03-23T00:32:03.782Z,110.57
2018-03-23T00:34:31.439Z,113.12
2018-03-23T00:36:59.094Z,117.55
2018-03-23T00:39:26.781Z,102.65
2018-03-23T00:41:54.835Z,96.12
2018-03-23T00:44:22.506Z,62.28
2018-03-23T00:46:50.154Z,66.80
2018-03-23T00:49:17.830Z,116.68
2018-03-23T00:51:45.487Z,107.32
2018-03-23T00:54:13.162Z,85.95
2018-03-23T00:56:40.841Z,94.30
2018-03-23T00:59:08.919Z,126.70
2018-03-23T01:01:36.571Z,67.68
2018-03-23T01:04:04.658Z,92.10
2018-03-23T01:06:32.714Z,57.35
2018-03-23T01:09:00.368Z,100.95
2018-03-23T01:11:28.066Z,108.47
2018-03-23T01:13:56.592Z,111.57
2018-03-23T01:16:24.255Z,109.97
2018-03-23T01:18:51.933Z,134.32
2018-03-23T01:21:19.605Z,87.07
2018-03-23T01:23:47.255Z,60.40
2018-03-23T01:26:14.904Z,102.82
2018-03-23T01:28:42.562Z,108.07
2018-03-23T01:31:10.238Z,129.90
2018-03-23T01:33:37.918Z,71.45
2018-03-23T01:36:06.001Z,128.38
2018-03-23T01:38:34.090Z,60.00
2018-03-23T01:41:01.769Z,97.53
2018-03-23T01:43:29.424Z,68.30
2018-03-23T01:45:57.082Z,74.18
2018-03-23T01:48:24.773Z,57.97
2018-03-23T01:50:52.430Z,69.90
2018-03-23T01:53:32.458Z,57.50
2018-03-23T01:56:00.150Z,69.00
2018-03-23T01:58:27.794Z,88.43
2018-03-23T02:00:55.475Z,79.32
2018-03-23T02:03:23.134Z,60.67
2018-03-23T02:05:50.789Z,141.00
2018-03-23T02:08:18.462Z,83.95
2018-03-23T02:10:46.130Z,157.88
2018-03-23T02:13:13.774Z,114.65
2018-03-23T02:15:41.434Z,138.35
2018-03-23T02:18:09.135Z,70.53
2018-03-23T02:20:36.813Z,109.18
2018-03-23T02:23:04.473Z,114.78
2018-03-23T02:25:32.242Z,75.40
2018-03-23T02:27:59.884Z,144.18
2018-03-23T02:30:27.568Z,149.55
2018-03-23T02:32:55.654Z,148.48
2018-03-23T02:35:23.706Z,141.80
2018-03-23T02:37:51.788Z,167.85
2018-03-23T02:40:19.851Z,97.37
2018-03-23T02:42:47.508Z,98.68
2018-03-23T02:45:15.211Z,103.62
2018-03-23T02:47:42.862Z,155.00
2018-03-23T02:50:10.537Z,147.50
2018-03-23T02:52:38.217Z,154.27
2018-03-23T02:55:05.902Z,152.95
2018-03-23T02:57:33.574Z,137.37
2018-03-23T03:00:01.262Z,130.80
2018-03-23T03:02:29.335Z,97.78
2018-03-23T03:04:56.997Z,145.32
2018-03-23T03:07:25.055Z,79.57
2018-03-23T03:09:52.714Z,109.78
2018-03-23T03:12:20.776Z,151.05
2018-03-23T03:14:48.481Z,153.93
2018-03-23T03:17:17.030Z,74.97
2018-03-23T03:19:44.686Z,147.40
2018-03-23T03:22:12.363Z,167.82
2018-03-23T03:24:40.427Z,167.05
2018-03-23T03:27:08.125Z,161.10
2018-03-23T03:29:35.795Z,86.93
2018-03-23T03:32:03.463Z,79.28
2018-03-23T03:34:31.130Z,138.60
2018-03-23T03:36:58.790Z,149.93
2018-03-23T03:39:26.455Z,89.82
2018-03-23T03:41:54.141Z,113.47
2018-03-23T03:44:21.858Z,126.47
2018-03-23T03:46:49.515Z,170.50
2018-03-23T03:49:17.195Z,100.75
2018-03-23T03:51:44.882Z,93.55
2018-03-23T03:54:12.535Z,96.82
2018-03-23T03:56:40.227Z,67.65
2018-03-23T03:59:07.871Z,63.70
2018-03-23T04:01:35.527Z,102.28
2018-03-23T04:04:03.213Z,65.82
2018-03-23T04:06:30.878Z,80.82
2018-03-23T04:08:58.538Z,64.85
2018-03-23T04:11:26.187Z,53.80
2018-03-23T04:13:53.865Z,49.70
2018-03-23T04:16:21.514Z,78.78
2018-03-23T04:18:49.190Z,90.00
2018-03-23T04:21:16.870Z,54.20
2018-03-23T04:23:44.541Z,66.87
2018-03-23T04:26:12.578Z,83.07
2018-03-23T04:28:40.280Z,109.15
2018-03-23T04:31:08.351Z,148.73
2018-03-23T04:33:36.390Z,167.43
2018-03-23T04:36:04.061Z,161.37
2018-03-23T04:38:31.710Z,158.52
2018-03-23T04:40:59.406Z,212.63
2018-03-23T04:43:27.065Z,160.55
2018-03-23T04:45:54.712Z,185.52
2018-03-23T04:48:22.387Z,182.73
2018-03-23T04:50:50.066Z,178.62
2018-03-23T04:53:17.734Z,207.50
2018-03-23T04:55:45.400Z,215.27
2018-03-23T04:58:13.076Z,93.22
2018-03-23T05:00:40.776Z,195.77
2018-03-23T05:03:08.422Z,146.02
2018-03-23T05:05:36.119Z,261.65
2018-03-23T05:08:03.842Z,239.35
2018-03-23T05:10:31.507Z,221.30
2018-03-23T05:12:59.184Z,259.45
2018-03-23T05:15:26.869Z,223.95
2018-03-23T05:17:54.538Z,149.40
2018-03-23T05:20:22.237Z,196.25
2018-03-23T05:22:49.905Z,245.68
2018-03-23T05:25:17.618Z,203.05
2018-03-23T05:27:45.274Z,237.38
2018-03-23T05:30:13.057Z,174.00
2018-03-23T05:32:40.808Z,166.30
2018-03-23T05:35:08.423Z,163.12
2018-03-23T05:37:36.205Z,146.02
2018-03-23T05:40:03.865Z,123.07
2018-03-23T05:42:31.540Z,118.80
2018-03-23T05:44:59.338Z,116.25
2018-03-23T05:47:27.010Z,146.82
2018-03-23T05:49:55.054Z,133.27
2018-03-23T05:52:22.769Z,121.68
2018-03-23T05:54:50.418Z,107.45
2018-03-23T05:57:18.142Z,122.60
2018-03-23T05:59:45.779Z,114.88
2018-03-23T06:02:13.467Z,136.57
2018-03-23T06:04:41.157Z,101.18
2018-03-23T06:07:09.230Z,105.47
2018-03-23T06:09:37.294Z,127.47
2018-03-23T06:12:05.026Z,106.90
2018-03-23T06:14:32.726Z,105.28
2018-03-23T06:17:00.386Z,97.60
2018-03-23T06:19:28.067Z,115.60
2018-03-23T06:21:55.722Z,89.57
2018-03-23T06:24:23.776Z,86.53
2018-03-23T06:26:51.469Z,101.90
2018-03-23T06:29:19.502Z,92.03
2018-03-23T06:31:47.186Z,81.45
2018-03-23T06:34:15.266Z,85.80
2018-03-23T06:36:42.943Z,79.60
2018-03-23T06:39:11.035Z,69.37
2018-03-23T06:41:38.702Z,97.43
2018-03-23T06:44:06.363Z,93.80
2018-03-23T06:46:34.041Z,85.22
2018-03-23T06:49:01.702Z,94.37
2018-03-23T06:51:29.377Z,84.00
2018-03-23T06:53:57.076Z,79.32
2018-03-23T06:56:25.118Z,90.38
2018-03-23T06:58:52.801Z,73.95
2018-03-23T07:01:20.849Z,69.78
2018-03-23T07:03:48.501Z,98.75
2018-03-23T07:06:16.169Z,104.22
2018-03-23T07:08:44.537Z,95.65
2018-03-23T07:11:12.202Z,93.37
2018-03-23T07:13:39.865Z,64.60
2018-03-23T07:16:07.542Z,85.70
2018-03-23T07:18:35.498Z,70.60
2018-03-23T07:21:03.153Z,77.03
2018-03-23T07:23:30.824Z,80.07
2018-03-23T07:25:58.500Z,89.37
2018-03-23T07:28:26.158Z,87.03
2018-03-23T07:30:53.808Z,82.68
2018-03-23T07:33:21.482Z,96.82
2018-03-23T07:35:49.145Z,95.38
2018-03-23T07:38:16.821Z,87.30
2018-03-23T07:40:44.499Z,89.87
2018-03-23T07:43:12.167Z,94.07
2018-03-23T07:45:39.840Z,96.95
2018-03-23T07:48:07.525Z,88.32
2018-03-23T07:50:35.181Z,95.12
2018-03-23T07:53:02.826Z,68.68
2018-03-23T07:55:30.496Z,58.65
2018-03-23T07:57:58.172Z,97.55
2018-03-23T08:00:25.825Z,80.30
2018-03-23T08:02:53.498Z,89.60
2018-03-23T08:05:21.153Z,85.10
2018-03-23T08:07:48.820Z,67.05
2018-03-23T08:10:16.481Z,73.32
2018-03-23T08:12:44.182Z,92.55
2018-03-23T08:15:11.863Z,86.03
2018-03-23T08:20:30.123Z,76.47
2018-03-23T08:22:58.238Z,71.37
2018-03-23T08:25:25.926Z,75.03
2018-03-23T08:27:53.595Z,64.55
2018-03-23T08:30:21.264Z,72.60
2018-03-23T08:32:48.965Z,61.83
2018-03-23T08:35:17.058Z,79.85
2018-03-23T08:37:44.745Z,56.45
2018-03-23T08:40:12.463Z,55.92
2018-03-23T08:42:40.525Z,64.72
2018-03-23T08:45:08.217Z,86.50
2018-03-23T08:47:35.898Z,72.82
2018-03-23T08:50:03.565Z,56.25
2018-03-23T08:52:31.280Z,52.28
2018-03-23T08:54:59.362Z,57.60
2018-03-23T08:57:27.434Z,46.10
2018-03-23T08:59:55.141Z,45.65
2018-03-23T09:02:22.833Z,59.25
2018-03-23T09:04:50.493Z,60.03
2018-03-23T09:07:18.221Z,48.97
2018-03-23T09:09:45.901Z,42.03
2018-03-23T09:12:13.576Z,49.72
2018-03-23T09:14:41.242Z,51.63
2018-03-23T09:17:08.938Z,51.08
2018-03-23T09:19:36.630Z,41.33
2018-03-23T09:22:04.315Z,34.20
2018-03-23T09:24:31.974Z,40.47
2018-03-23T09:26:59.641Z,45.85
2018-03-23T09:29:27.338Z,41.70
2018-03-23T09:31:55.022Z,45.72
2018-03-23T09:34:22.715Z,44.08
2018-03-23T09:36:50.401Z,42.60
2018-03-23T09:39:18.085Z,45.75
2018-03-23T09:41:46.193Z,49.95
2018-03-23T09:44:13.890Z,43.17
2018-03-23T09:46:41.576Z,51.55
2018-03-23T09:49:09.275Z,51.17
2018-03-23T09:51:36.942Z,47.90
2018-03-23T10:06:17.228Z,43.75
2018-03-23T10:08:44.890Z,42.95
2018-03-23T10:11:12.571Z,49.75
2018-03-23T10:13:40.274Z,50.07
2018-03-23T10:16:07.942Z,54.27
2018-03-23T10:18:35.637Z,42.37
2018-03-23T10:21:03.304Z,43.07
2018-03-23T10:23:30.990Z,43.63
2018-03-23T10:25:58.677Z,44.27
2018-03-23T10:28:26.744Z,40.67
2018-03-23T10:30:54.434Z,48.80
2018-03-23T10:33:22.104Z,49.70
2018-03-23T10:35:49.762Z,44.03
2018-03-23T10:38:17.422Z,46.90
2018-03-23T10:40:45.110Z,45.50
2018-03-23T10:43:12.811Z,43.27
2018-03-23T10:45:40.500Z,37.50
2018-03-23T10:48:08.575Z,37.10
2018-03-23T10:50:36.259Z,38.90
2018-03-23T10:53:03.945Z,34.87
2018-03-23T10:55:31.609Z,40.70
2018-03-23T10:57:59.310Z,32.83
2018-03-23T11:00:27.396Z,37.63
2018-03-23T11:02:55.094Z,33.23
2018-03-23T11:05:22.782Z,31.53
2018-03-23T11:07:50.473Z,31.40
2018-03-23T11:10:18.205Z,33.90
2018-03-23T11:12:46.030Z,28.10
2018-03-23T11:15:13.882Z,34.77
2018-03-23T11:17:41.661Z,25.57
2018-03-23T11:20:09.906Z,37.13
2018-03-23T11:22:37.690Z,30.17
2018-03-23T11:25:05.433Z,31.70
2018-03-23T11:27:33.234Z,26.13
2018-03-23T11:30:00.967Z,24.30
2018-03-23T11:32:28.745Z,28.00
2018-03-23T11:34:56.554Z,27.07
2018-03-23T11:37:24.345Z,28.53
2018-03-23T11:39:52.189Z,27.70
2018-03-23T11:42:19.927Z,26.87
2018-03-23T11:44:47.736Z,30.10
2018-03-23T11:47:15.587Z,24.73
2018-03-23T11:49:43.454Z,24.90
2018-03-23T11:52:11.222Z,30.90
2018-03-23T11:54:38.982Z,28.70
2018-03-23T11:57:06.778Z,25.83
2018-03-23T11:59:34.937Z,23.07
2018-03-23T12:02:02.755Z,26.50
2018-03-23T12:04:30.858Z,26.07
2018-03-23T12:06:58.581Z,26.77
2018-03-23T12:09:26.398Z,26.70
2018-03-23T12:11:54.178Z,23.27
2018-03-23T12:14:21.994Z,28.50
2018-03-23T12:16:49.807Z,25.93
2018-03-23T12:19:17.588Z,29.00
2018-03-23T12:21:45.780Z,23.97
2018-03-23T12:24:13.527Z,22.77
2018-03-23T12:26:41.683Z,23.97
2018-03-23T12:29:09.423Z,25.90
2018-03-23T12:31:37.177Z,24.40
2018-03-23T12:34:04.915Z,23.80
2018-03-23T12:36:32.710Z,21.73
2018-03-23T12:39:01.696Z,26.00
2018-03-23T12:41:29.656Z,25.10
2018-03-23T12:43:57.435Z,28.83
2018-03-23T12:46:25.614Z,27.60
2018-03-23T12:48:53.359Z,29.83
2018-03-23T12:51:21.161Z,23.37
2018-03-23T12:53:48.936Z,29.00
2018-03-23T12:56:16.715Z,27.70
2018-03-23T12:58:50.876Z,24.87
2018-03-23T13:01:24.561Z,33.13
2018-03-23T13:03:52.268Z,26.97
2018-03-23T13:06:20.007Z,29.37
2018-03-23T13:08:48.627Z,31.67
2018-03-23T13:11:16.448Z,29.30
2018-03-23T13:13:44.164Z,24.83
2018-03-23T13:16:12.001Z,33.17
2018-03-23T13:18:39.772Z,28.20
2018-03-23T13:21:07.523Z,27.40
2018-03-23T13:23:35.333Z,30.40
2018-03-23T13:26:03.080Z,37.60
2018-03-23T13:28:30.846Z,35.93
2018-03-23T13:30:58.603Z,34.70
2018-03-23T13:33:26.402Z,32.03
2018-03-23T13:35:54.168Z,33.23
2018-03-23T13:38:22.211Z,29.33
2018-03-23T13:40:49.979Z,28.47
2018-03-23T13:43:17.788Z,38.50
2018-03-23T13:45:46.574Z,31.07
2018-03-23T13:48:14.382Z,30.40
2018-03-23T13:50:42.147Z,28.73
2018-03-23T13:53:09.879Z,36.47
2018-03-23T13:58:42.725Z,35.28
2018-03-23T14:01:13.336Z,37.13
2018-03-23T14:03:44.609Z,39.47
2018-03-23T14:06:12.375Z,32.70
2018-03-23T14:08:41.395Z,30.70
2018-03-23T14:11:09.316Z,32.53
2018-03-23T14:13:39.489Z,36.87
2018-03-23T14:16:07.777Z,30.87
2018-03-23T14:18:35.552Z,30.90
2018-03-23T14:21:08.972Z,32.87
2018-03-23T14:26:39.819Z,26.73
2018-03-23T14:29:08.723Z,28.70
2018-03-23T14:31:36.564Z,32.23
2018-03-23T14:34:29.470Z,32.83
2018-03-23T14:36:57.742Z,29.27
2018-03-23T14:39:27.372Z,35.97
2018-03-23T14:41:55.225Z,26.30
2018-03-23T14:44:24.652Z,22.83
2018-03-23T14:46:56.046Z,17.80
2018-03-23T14:52:28.984Z,17.45
2018-03-23T14:57:57.233Z,15.10
2018-03-23T15:09:33.856Z,13.00
2018-03-23T15:12:02.841Z,18.67
2018-03-23T15:14:38.787Z,17.10
2018-03-23T15:17:07.024Z,24.17
2018-03-23T15:22:39.278Z,22.13
2018-03-23T15:25:06.992Z,12.03
2018-03-23T15:33:41.494Z,15.23
2018-03-23T15:36:09.676Z,29.53
2018-03-23T15:38:38.402Z,18.67
2018-03-23T15:41:06.469Z,17.10
2018-03-23T15:43:34.374Z,15.53
2018-03-23T15:48:34.167Z,14.17
2018-03-23T15:51:01.928Z,9.90
2018-03-23T15:53:30.262Z,13.30
2018-03-23T15:55:58.691Z,14.90
2018-03-23T15:58:26.613Z,14.53
2018-03-23T16:00:54.546Z,10.63
2018-03-23T16:03:22.310Z,11.35
2018-03-23T16:05:50.108Z,9.10
2018-03-23T16:08:18.345Z,9.67
2018-03-23T16:10:46.125Z,9.77
2018-03-23T16:13:13.899Z,15.30
2018-03-23T16:15:42.043Z,10.52
2018-03-23T16:18:09.946Z,11.35
2018-03-23T16:20:37.702Z,10.97
2018-03-23T16:23:05.503Z,11.02
2018-03-23T16:25:37.462Z,10.30
2018-03-23T16:28:05.632Z,15.32
2018-03-23T16:30:33.475Z,18.50
2018-03-23T16:33:01.226Z,10.45
2018-03-23T16:35:28.983Z,10.07
2018-03-23T16:37:56.732Z,13.37
2018-03-23T16:43:15.518Z,13.57
2018-03-23T16:45:43.354Z,13.60
2018-03-23T16:48:11.265Z,10.30
2018-03-23T16:50:39.082Z,12.98
2018-03-23T16:53:06.849Z,17.10
2018-03-23T16:55:34.838Z,10.37
2018-03-23T16:58:02.567Z,12.15
2018-03-23T17:00:30.744Z,10.33
2018-03-23T17:02:58.887Z,12.88
2018-03-23T17:05:27.764Z,11.35
2018-03-23T17:07:55.603Z,13.23
2018-03-23T17:10:23.414Z,12.45
2018-03-23T17:12:51.266Z,15.30
2018-03-23T17:15:19.038Z,83.47
2018-03-23T17:17:46.815Z,64.87
2018-03-23T17:20:14.595Z,15.47
2018-03-23T17:22:42.337Z,16.75
2018-03-23T17:25:10.114Z,38.90
2018-03-23T17:27:37.892Z,29.40
2018-03-23T17:30:05.715Z,18.83
2018-03-23T17:32:33.531Z,24.55
2018-03-23T17:35:01.262Z,14.48
2018-03-23T17:37:29.085Z,28.17
2018-03-23T17:39:56.894Z,39.00
2018-03-23T17:42:24.676Z,71.05
2018-03-23T17:44:52.621Z,37.80
2018-03-23T18:05:49.463Z,27.42
2018-03-23T18:08:17.142Z,52.25
2018-03-23T18:10:44.828Z,22.25
2018-03-23T18:13:12.512Z,31.83
2018-03-23T18:15:40.232Z,25.73
2018-03-23T18:18:07.941Z,33.17
2018-03-23T18:20:35.831Z,76.50
2018-03-23T18:23:03.841Z,96.93
2018-03-23T18:25:31.651Z,31.12
2018-03-23T18:27:59.478Z,34.85
2018-03-23T18:30:27.293Z,90.78
2018-03-23T18:32:55.055Z,25.67
2018-03-23T18:35:22.774Z,22.17
2018-03-23T18:37:50.511Z,49.75
2018-03-23T18:40:18.288Z,27.90
2018-03-23T18:42:46.075Z,45.12
2018-03-23T18:48:10.755Z,23.48
2018-03-23T18:50:38.523Z,39.30
2018-03-23T18:53:06.283Z,26.40
2018-03-23T18:55:34.054Z,48.35
2018-03-23T18:58:01.825Z,24.37
2018-03-23T19:00:29.555Z,31.35
2018-03-23T19:02:57.367Z,27.08
2018-03-23T19:05:25.104Z,25.70
2018-03-23T19:07:52.879Z,23.55
2018-03-23T19:10:20.638Z,20.35
2018-03-23T19:12:48.358Z,108.18
2018-03-23T19:15:16.537Z,25.65
2018-03-23T19:17:44.671Z,25.00
2018-03-23T19:20:12.581Z,24.45
2018-03-23T19:22:40.286Z,25.15
2018-03-23T19:25:08.032Z,22.85
2018-03-23T19:27:35.855Z,20.55
2018-03-23T19:30:03.631Z,20.02
2018-03-23T19:32:31.647Z,38.08
2018-03-23T19:34:59.402Z,42.92
2018-03-23T19:37:27.203Z,23.10
2018-03-23T19:39:55.015Z,47.65
2018-03-23T19:42:23.199Z,28.17
2018-03-23T19:44:50.992Z,101.40
2018-03-23T19:47:18.764Z,33.95
2018-03-23T19:49:46.560Z,29.33
2018-03-23T19:52:14.359Z,27.52
2018-03-23T19:54:42.120Z,19.45
2018-03-23T19:57:09.876Z,32.00
2018-03-23T19:59:37.595Z,29.65
2018-03-23T20:02:05.342Z,32.58
2018-03-23T20:04:33.093Z,26.48
2018-03-23T20:07:00.918Z,25.45
2018-03-23T20:09:29.067Z,25.62
2018-03-23T20:11:56.811Z,20.20
2018-03-23T20:14:24.586Z,42.55
2018-03-23T20:16:52.298Z,37.15
2018-03-23T20:19:20.063Z,29.85
2018-03-23T20:21:48.215Z,33.78
2018-03-23T20:24:15.961Z,25.92
2018-03-23T20:26:43.689Z,28.08
2018-03-23T20:29:11.545Z,41.05
2018-03-23T20:31:39.302Z,45.30
2018-03-23T20:34:07.509Z,24.60
2018-03-23T20:36:35.247Z,23.48
2018-03-23T20:39:10.030Z,19.83
2018-03-23T20:41:37.846Z,22.10
2018-03-23T20:44:05.607Z,20.27
2018-03-23T20:46:33.436Z,21.98
2018-03-23T20:49:01.222Z,24.08
2018-03-23T20:51:29.346Z,23.98
2018-03-23T20:53:57.223Z,19.90
2018-03-23T20:56:24.971Z,22.92
2018-03-23T20:58:52.871Z,27.92
2018-03-23T21:01:20.603Z,25.17
2018-03-23T21:03:48.700Z,24.35
2018-03-23T21:06:16.440Z,27.17
2018-03-23T21:08:44.148Z,26.65
2018-03-23T21:11:12.019Z,27.35
2018-03-23T21:13:39.826Z,22.05
2018-03-23T21:16:07.675Z,20.60
2018-03-23T21:18:35.791Z,41.47
2018-03-23T21:21:03.620Z,33.13
2018-03-23T21:23:31.763Z,31.83
2018-03-23T21:25:59.588Z,26.80
2018-03-23T21:28:27.296Z,24.77
2018-03-23T21:30:55.467Z,25.80
2018-03-23T21:33:23.291Z,30.55
2018-03-23T21:35:51.099Z,22.37
2018-03-23T21:38:19.367Z,31.40
2018-03-23T21:40:47.261Z,25.52
2018-03-23T21:43:15.142Z,32.92
2018-03-23T21:45:42.920Z,35.03
2018-03-23T21:48:10.684Z,25.40
2018-03-23T21:50:38.432Z,80.15
2018-03-23T21:53:06.241Z,22.95
2018-03-23T21:55:34.016Z,25.35
2018-03-23T21:58:01.731Z,25.80
2018-03-23T22:00:29.837Z,42.55
2018-03-23T22:02:57.612Z,23.02
2018-03-23T22:05:25.360Z,26.48
2018-03-23T22:07:53.157Z,103.70
2018-03-23T22:10:20.895Z,283.62
2018-03-23T22:12:48.697Z,145.80
2018-03-23T22:15:16.461Z,49.95
2018-03-23T22:17:44.619Z,31.52
2018-03-23T22:20:12.472Z,25.50
2018-03-23T22:22:40.323Z,44.25
2018-03-23T22:25:08.066Z,463.23
2018-03-23T22:27:35.890Z,110.93
2018-03-23T22:30:03.666Z,237.05
2018-03-23T22:32:31.486Z,97.32
2018-03-23T22:34:59.271Z,68.55
2018-03-23T22:37:27.102Z,49.20
2018-03-23T22:39:54.938Z,68.37
2018-03-23T22:42:22.652Z,47.95
2018-03-23T22:44:50.395Z,135.63
2018-03-23T22:47:18.203Z,41.25
2018-03-23T22:49:45.988Z,40.20
2018-03-23T22:52:13.797Z,38.03
2018-03-23T22:54:41.650Z,28.70
2018-03-23T22:57:09.938Z,28.80
2018-03-23T22:59:37.668Z,47.00
2018-03-23T23:02:05.890Z,23.65
2018-03-23T23:04:33.654Z,23.52
2018-03-23T23:07:01.397Z,30.92
2018-03-23T23:09:29.305Z,24.30
2018-03-23T23:11:57.043Z,21.77
2018-03-23T23:14:24.763Z,24.12
2018-03-23T23:16:52.569Z,33.13
2018-03-23T23:34:36.099Z,24.58
2018-03-23T23:37:03.795Z,26.95
2018-03-23T23:39:31.484Z,24.40
2018-03-23T23:41:59.161Z,27.15
2018-03-23T23:44:26.829Z,23.08
2018-03-23T23:46:54.897Z,23.23
2018-03-23T23:49:22.598Z,26.08
2018-03-23T23:51:50.295Z,29.92
2018-03-23T23:54:17.955Z,25.75
2018-03-23T23:56:45.695Z,31.30
2018-03-23T23:59:13.438Z,31.23
